Time;durP1;ratioP1;P1;durP2;ratioP2;P2;SDS_P1;SDS_P2;PMS_P1;PMS_P2;Temp;Humidity;BMP_temperature;BMP_pressure;BME280_temperature;BME280_humidity;BME280_pressure;Samples;Min_cycle;Max_cycle;Signal;HPM_P1;HPM_P2
2022/10/11 00:00:34;;;;;;;7.70;4.80;;;;;;;7.15;100.00;101926.09;5069014;28;20059;-71
2022/10/11 00:03:01;;;;;;;7.90;4.93;;;;;;;7.21;100.00;101928.31;5067571;28;20020;-71
2022/10/11 00:05:42;;;;;;;7.80;4.33;;;;;;;7.24;100.00;101927.25;5109817;27;20413;-70
2022/10/11 00:08:19;;;;;;;7.07;4.33;;;;;;;7.26;100.00;101922.69;5090961;27;1800426;-71
2022/10/11 00:11:03;;;;;;;6.70;5.10;;;;;;;7.45;100.00;101917.69;5068237;28;20945;-72
2022/10/11 00:13:40;;;;;;;8.33;5.83;;;;;;;7.53;100.00;101911.84;5069595;28;20363;-72
2022/10/11 00:16:20;;;;;;;6.23;4.20;;;;;;;7.55;100.00;101907.28;5069511;27;20374;-71
2022/10/11 00:18:58;;;;;;;4.57;3.70;;;;;;;7.64;100.00;101909.22;5069377;28;20375;-70
2022/10/11 00:21:35;;;;;;;7.50;4.10;;;;;;;7.72;100.00;101915.63;5069461;28;20127;-70
2022/10/11 00:24:15;;;;;;;7.73;3.77;;;;;;;7.78;100.00;101898.41;5069393;28;20397;-70
2022/10/11 00:26:51;;;;;;;6.43;3.93;;;;;;;7.85;100.00;101901.47;5074776;27;2380373;-70
2022/10/11 00:29:31;;;;;;;7.27;4.10;;;;;;;7.91;100.00;101893.88;5171936;27;20130;-70
2022/10/11 00:32:06;;;;;;;6.32;4.38;;;;;;;7.87;100.00;101879.16;5109031;27;1253276;-69
2022/10/11 00:34:43;;;;;;;5.90;4.47;;;;;;;8.00;100.00;101887.00;5078183;27;1526639;-70
2022/10/11 00:37:21;;;;;;;5.33;4.00;;;;;;;7.97;100.00;101890.75;5109897;27;20723;-71
2022/10/11 00:40:06;;;;;;;9.93;5.33;;;;;;;7.97;100.00;101897.84;5069507;28;20401;-70
2022/10/11 00:42:43;;;;;;;5.53;3.87;;;;;;;7.89;100.00;101887.84;5069384;28;20382;-71
2022/10/11 00:45:26;;;;;;;7.13;4.47;;;;;;;7.98;100.00;101891.59;5103526;27;1531464;-71
2022/10/11 00:48:14;;;;;;;4.57;3.60;;;;;;;7.92;100.00;101878.81;5069368;27;20371;-70
2022/10/11 00:50:51;;;;;;;9.67;5.37;;;;;;;7.90;100.00;101873.63;5069543;28;20380;-72
2022/10/11 00:53:30;;;;;;;5.67;3.93;;;;;;;7.95;100.00;101883.88;5069371;28;20162;-70
2022/10/11 00:56:21;;;;;;;6.07;4.63;;;;;;;7.85;100.00;101869.63;5109814;27;20380;-70
2022/10/11 00:59:02;;;;;;;7.27;4.10;;;;;;;7.89;100.00;101874.59;5110251;27;20372;-70
2022/10/11 01:01:40;;;;;;;7.63;3.90;;;;;;;7.94;100.00;101876.88;5069448;28;20379;-72
2022/10/11 01:04:19;;;;;;;7.00;4.13;;;;;;;7.87;100.00;101878.31;5069418;28;20908;-71
2022/10/11 01:06:57;;;;;;;5.93;3.90;;;;;;;7.75;100.00;101878.28;5110008;27;20879;-72
2022/10/11 01:09:37;;;;;;;4.97;3.87;;;;;;;7.69;100.00;101872.59;5130436;27;20157;-69
2022/10/11 01:12:20;;;;;;;3.97;3.23;;;;;;;7.69;100.00;101868.13;5069573;28;20382;-70
2022/10/11 01:15:16;;;;;;;6.83;4.43;;;;;;;7.75;100.00;101870.31;5113244;27;1289418;-71
2022/10/11 01:18:17;;;;;;;4.23;3.80;;;;;;;7.81;100.00;101865.53;5069678;28;20394;-71
2022/10/11 01:21:30;;;;;;;6.93;3.80;;;;;;;7.87;100.00;101870.34;5069450;28;20904;-70
2022/10/11 01:24:34;;;;;;;8.00;4.40;;;;;;;7.92;100.00;101860.22;5130641;27;20912;-70
2022/10/11 01:27:33;;;;;;;5.80;3.43;;;;;;;7.89;100.00;101855.16;5110030;27;20732;-70
2022/10/11 01:30:30;;;;;;;5.53;4.43;;;;;;;7.91;100.00;101855.91;4489541;27;18713885;-69
2022/10/11 01:33:17;;;;;;;10.07;3.97;;;;;;;7.90;100.00;101855.03;5069596;28;20374;-71
2022/10/11 01:36:30;;;;;;;5.43;3.70;;;;;;;7.87;100.00;101849.97;5069699;28;20123;-72
2022/10/11 01:39:15;;;;;;;4.53;3.37;;;;;;;7.89;100.00;101847.22;5079070;28;20375;-70
2022/10/11 01:41:56;;;;;;;6.87;3.30;;;;;;;7.88;100.00;101845.53;5078152;28;20375;-71
2022/10/11 01:44:37;;;;;;;4.57;4.07;;;;;;;7.88;100.00;101840.22;5061175;28;20384;-71
2022/10/11 01:47:21;;;;;;;5.47;3.57;;;;;;;7.84;100.00;101833.47;5108368;27;1552195;-72
2022/10/11 01:50:01;;;;;;;6.10;3.40;;;;;;;7.83;100.00;101837.09;5076719;28;20874;-72
2022/10/11 01:52:42;;;;;;;6.93;3.90;;;;;;;7.83;100.00;101831.78;5088340;27;2089116;-72
2022/10/11 01:55:44;;;;;;;7.47;3.90;;;;;;;7.87;100.00;101827.94;5092479;27;20881;-70
2022/10/11 01:58:47;;;;;;;7.37;4.13;;;;;;;7.87;100.00;101827.94;5070004;28;20367;-71
2022/10/11 02:01:38;;;;;;;4.00;3.60;;;;;;;7.88;100.00;101827.81;5069758;28;20371;-71
2022/10/11 02:04:20;;;;;;;5.40;4.77;;;;;;;7.82;100.00;101824.78;5110207;27;20395;-71
2022/10/11 02:07:11;;;;;;;7.77;4.27;;;;;;;7.81;100.00;101815.16;5069407;28;20730;-70
2022/10/11 02:09:55;;;;;;;6.00;4.23;;;;;;;7.74;100.00;101806.78;5069490;28;20406;-70
2022/10/11 02:12:40;;;;;;;7.93;4.53;;;;;;;7.67;100.00;101790.53;5069818;28;20371;-72
2022/10/11 02:15:21;;;;;;;6.57;4.40;;;;;;;7.80;100.00;101800.16;5132599;27;20116;-72
2022/10/11 02:18:04;;;;;;;7.83;4.73;;;;;;;7.88;100.00;101803.09;5071295;28;20394;-70
2022/10/11 02:20:44;;;;;;;5.80;4.90;;;;;;;7.87;100.00;101799.59;5070250;28;20429;-71
2022/10/11 02:23:31;;;;;;;9.03;5.53;;;;;;;7.84;100.00;101796.34;5069636;28;20379;-71
2022/10/11 02:26:13;;;;;;;5.83;4.33;;;;;;;7.81;100.00;101797.44;5130304;27;20115;-70
2022/10/11 02:28:54;;;;;;;9.57;5.00;;;;;;;7.68;100.00;101792.22;5105839;27;1389650;-73
2022/10/11 02:31:31;;;;;;;6.47;4.40;;;;;;;7.66;100.00;101794.13;5100366;27;1536871;-71
2022/10/11 02:34:19;;;;;;;7.30;5.37;;;;;;;7.68;100.00;101786.91;5069450;28;20886;-70
2022/10/11 02:37:08;;;;;;;8.13;3.80;;;;;;;7.74;100.00;101791.72;5069264;28;20378;-70
2022/10/11 02:39:54;;;;;;;4.80;4.20;;;;;;;7.75;100.00;101788.13;5110122;27;20372;-71
2022/10/11 02:42:37;;;;;;;6.17;3.70;;;;;;;7.68;100.00;101776.31;5069521;28;20374;-71
2022/10/11 02:45:24;;;;;;;4.80;4.30;;;;;;;7.71;100.00;101770.75;5069471;28;20890;-70
2022/10/11 02:48:03;;;;;;;6.13;4.70;;;;;;;7.50;100.00;101740.59;5069578;28;20370;-70
2022/10/11 02:50:42;;;;;;;5.20;3.60;;;;;;;7.71;100.00;101770.75;5069761;28;20387;-70
2022/10/11 02:53:20;;;;;;;5.43;4.07;;;;;;;7.76;100.00;101768.59;5069646;28;20371;-70
2022/10/11 02:55:58;;;;;;;5.50;4.33;;;;;;;7.68;100.00;101759.56;5110108;27;20376;-70
2022/10/11 02:58:36;;;;;;;5.83;4.30;;;;;;;7.68;100.00;101752.44;5110004;27;20380;-72
2022/10/11 03:01:14;;;;;;;5.70;4.03;;;;;;;7.74;100.00;101765.22;5070013;27;20379;-72
2022/10/11 03:03:53;;;;;;;11.23;4.10;;;;;;;7.67;99.73;101758.72;5110588;27;20375;-70
2022/10/11 03:06:32;;;;;;;5.47;3.50;;;;;;;7.65;99.95;101744.72;5131081;27;20116;-72
2022/10/11 03:09:08;;;;;;;5.03;3.77;;;;;;;7.83;99.27;101760.19;5070179;27;20704;-71
2022/10/11 03:11:45;;;;;;;5.07;4.00;;;;;;;7.83;99.87;101754.88;5069856;28;20130;-71
2022/10/11 03:14:22;;;;;;;7.47;4.77;;;;;;;7.76;99.92;101752.69;5069845;28;20126;-70
2022/10/11 03:17:04;;;;;;;3.47;2.97;;;;;;;7.71;99.61;101744.25;5172285;27;20171;-71
2022/10/11 03:19:41;;;;;;;5.97;3.47;;;;;;;7.49;100.00;101707.09;5068535;27;2440541;-71
2022/10/11 03:22:16;;;;;;;;;;;;;;;7.74;99.47;101749.31;5101802;27;2015237;-70
2022/10/11 03:24:51;;;;;;;4.55;4.10;;;;;;;7.75;98.83;101745.69;5108324;27;1278915;-70
2022/10/11 03:27:31;;;;;;;6.77;4.40;;;;;;;7.80;98.42;101741.81;5069781;28;20383;-70
2022/10/11 03:30:10;;;;;;;7.10;4.23;;;;;;;7.71;99.00;101725.69;5172349;27;19921;-69
2022/10/11 03:32:48;;;;;;;6.50;4.13;;;;;;;7.83;98.88;101741.59;5110227;27;20379;-71
2022/10/11 03:35:24;;;;;;;5.90;3.77;;;;;;;7.80;98.57;101733.88;5100470;27;1535393;-70
2022/10/11 03:38:05;;;;;;;6.27;3.70;;;;;;;7.76;98.33;101731.47;5069292;28;20707;-69
2022/10/11 03:40:42;;;;;;;6.27;3.87;;;;;;;7.71;98.18;101712.44;5110252;27;20372;-70
2022/10/11 03:43:22;;;;;;;4.70;3.90;;;;;;;7.75;98.40;101723.63;5069588;28;20869;-70
2022/10/11 03:45:58;;;;;;;5.70;3.90;;;;;;;7.70;98.29;101716.03;5069498;28;20374;-70
2022/10/11 03:48:38;;;;;;;8.20;4.15;;;;;;;7.78;98.76;101708.31;5106420;27;1344182;-73
2022/10/11 03:51:15;;;;;;;5.13;3.80;;;;;;;7.83;98.15;101715.09;5069429;28;20401;-68
2022/10/11 03:53:56;;;;;;;4.07;3.13;;;;;;;7.72;97.80;101700.84;5069870;28;20707;-71
2022/10/11 03:56:33;;;;;;;5.53;3.83;;;;;;;7.75;98.14;101710.38;5069569;28;20377;-71
2022/10/11 03:59:12;;;;;;;9.20;4.07;;;;;;;7.63;97.79;101693.63;5069807;28;20134;-71
2022/10/11 04:01:50;;;;;;;4.63;3.20;;;;;;;7.64;98.29;101710.38;5110181;27;20376;-75
2022/10/11 04:04:28;;;;;;;3.83;3.43;;;;;;;7.52;98.79;101701.59;5171977;27;20119;-70
2022/10/11 04:07:04;;;;;;;5.47;3.87;;;;;;;7.49;98.85;101712.41;5104907;27;1414444;-70
2022/10/11 04:09:44;;;;;;;6.03;3.67;;;;;;;7.45;99.26;101700.38;5172145;27;20178;-68
2022/10/11 04:12:21;;;;;;;5.83;4.47;;;;;;;7.46;99.32;101702.88;5097018;27;20384;-72
2022/10/11 04:15:01;;;;;;;6.00;4.03;;;;;;;7.39;99.42;101682.28;5090516;28;20140;-73
2022/10/11 04:17:39;;;;;;;5.97;4.07;;;;;;;7.50;99.94;101692.03;5088863;28;20391;-74
2022/10/11 04:20:18;;;;;;;6.67;4.10;;;;;;;7.50;99.25;101687.59;5121863;27;1403074;-74
2022/10/11 04:22:57;;;;;;;5.20;4.00;;;;;;;7.54;99.55;101693.53;5070882;28;20415;-73
2022/10/11 04:25:38;;;;;;;4.80;3.93;;;;;;;7.47;99.52;101672.78;5069936;28;20428;-79
2022/10/11 04:28:15;;;;;;;5.77;4.60;;;;;;;7.47;98.74;101671.94;5070235;28;20367;-76
2022/10/11 04:30:54;;;;;;;5.30;3.83;;;;;;;7.41;99.20;101665.31;5069923;28;20375;-71
2022/10/11 04:33:31;;;;;;;4.87;3.87;;;;;;;7.36;99.69;101664.00;5069748;28;20886;-73
2022/10/11 04:36:09;;;;;;;4.63;3.93;;;;;;;7.36;99.68;101659.53;5101319;27;20126;-81
2022/10/11 04:38:46;;;;;;;5.43;3.73;;;;;;;7.35;99.55;101652.53;5174699;27;20399;-78
2022/10/11 04:41:24;;;;;;;6.37;4.27;;;;;;;7.33;99.70;101657.13;5093079;28;20126;-82
2022/10/11 04:44:02;;;;;;;8.90;4.80;;;;;;;7.33;100.00;101646.53;5087531;28;20391;-81
2022/10/11 04:46:40;;;;;;;8.37;4.00;;;;;;;7.45;99.16;101647.34;5113256;27;1314932;-76
2022/10/11 04:49:17;;;;;;;6.87;4.13;;;;;;;7.39;99.55;101645.19;5070367;28;20393;-75
2022/10/11 04:51:54;;;;;;;9.27;4.63;;;;;;;7.39;99.79;101653.16;5107435;27;1345039;-75
2022/10/11 04:54:32;;;;;;;8.93;4.23;;;;;;;7.40;99.54;101644.22;5070002;28;20401;-74
2022/10/11 04:57:09;;;;;;;6.30;4.43;;;;;;;7.44;100.00;101641.22;5070199;28;20133;-76
2022/10/11 04:59:47;;;;;;;6.17;4.43;;;;;;;7.46;99.29;101633.13;5069948;28;20401;-74
2022/10/11 05:02:26;;;;;;;8.00;4.40;;;;;;;7.48;99.39;101636.50;5135218;27;20116;-75
2022/10/11 05:05:03;;;;;;;12.07;4.37;;;;;;;7.48;99.20;101636.50;5084876;27;2100812;-76
2022/10/11 05:07:43;;;;;;;7.63;4.67;;;;;;;7.45;99.30;101620.84;5103035;27;1560996;-75
2022/10/11 05:10:20;;;;;;;14.53;4.93;;;;;;;7.57;99.13;101643.75;5141301;27;20116;-76
2022/10/11 05:12:57;;;;;;;6.13;4.37;;;;;;;7.52;98.98;101635.34;5117503;27;1628411;-74
2022/10/11 05:15:36;;;;;;;8.73;4.93;;;;;;;7.45;98.87;101626.16;5084607;28;20395;-74
2022/10/11 05:18:18;;;;;;;6.70;4.40;;;;;;;7.51;98.81;101630.97;5112316;27;20383;-74
2022/10/11 05:21:08;;;;;;;4.80;4.30;;;;;;;7.52;98.78;101629.16;5103164;27;20394;-75
2022/10/11 05:23:48;;;;;;;7.23;4.53;;;;;;;7.50;98.68;101626.63;5073569;28;20367;-80
2022/10/11 05:26:26;;;;;;;7.30;4.87;;;;;;;7.49;98.22;101611.69;5112225;27;20384;-79
2022/10/11 05:29:05;;;;;;;6.97;4.50;;;;;;;7.58;98.25;101610.13;5108280;27;1307032;-79
2022/10/11 05:31:44;;;;;;;6.83;5.00;;;;;;;7.51;98.13;101599.16;5075347;28;20385;-79
2022/10/11 05:34:34;;;;;;;7.80;4.53;;;;;;;7.58;98.24;101600.38;5069922;28;20382;-78
2022/10/11 05:37:10;;;;;;;6.70;4.57;;;;;;;7.61;97.23;101605.44;5108152;27;1346645;-79
2022/10/11 05:39:47;;;;;;;12.00;5.23;;;;;;;7.55;97.56;101603.28;5093367;27;1314061;-78
2022/10/11 05:42:24;;;;;;;5.83;4.10;;;;;;;7.52;97.25;101595.56;5072127;27;1352289;-79
2022/10/11 05:45:01;;;;;;;;;;;;;;;7.59;97.29;101607.38;5091382;27;2005692;-77
2022/10/11 05:47:39;;;;;;;11.97;5.03;;;;;;;7.57;97.12;101601.34;5073885;28;20390;-77
2022/10/11 05:50:19;;;;;;;9.53;4.67;;;;;;;7.57;97.92;101611.09;5196097;27;20747;-85
2022/10/11 05:53:00;;;;;;;6.83;4.33;;;;;;;7.68;97.31;101605.78;5076570;28;20378;-79
2022/10/11 05:55:41;;;;;;;6.97;4.20;;;;;;;7.58;96.83;101583.63;5122226;27;20369;-76
2022/10/11 05:58:23;;;;;;;5.43;4.20;;;;;;;7.58;96.87;101588.94;5103920;27;20420;-81
2022/10/11 06:01:03;;;;;;;5.87;4.00;;;;;;;7.63;96.20;101600.84;5091792;27;1496961;-75
2022/10/11 06:03:42;;;;;;;10.77;4.40;;;;;;;7.56;97.22;101599.66;5143395;27;20138;-76
2022/10/11 06:06:22;;;;;;;11.93;3.90;;;;;;;7.56;96.94;101597.00;5149214;27;20414;-77
2022/10/11 06:09:01;;;;;;;7.07;3.83;;;;;;;7.56;96.63;101585.56;5077450;27;20874;-77
2022/10/11 06:11:41;;;;;;;11.93;5.30;;;;;;;7.62;95.79;101591.22;5074941;28;20386;-77
2022/10/11 06:14:38;;;;;;;5.37;3.83;;;;;;;7.50;95.28;101562.16;5104009;27;20391;-76
2022/10/11 06:25:32;;;;;;;6.03;3.73;;;;;;;7.44;95.21;101580.25;5037856;28;20056;-76
2022/10/11 06:28:30;;;;;;;5.83;3.80;;;;;;;7.38;95.33;101542.81;5098037;27;20413;-76
2022/10/11 06:31:24;;;;;;;6.97;3.60;;;;;;;7.58;94.82;101567.72;5105628;27;20414;-77
2022/10/11 06:34:01;;;;;;;9.20;5.60;;;;;;;7.61;94.79;101564.81;4585026;27;16595723;-79
2022/10/11 06:36:59;;;;;;;7.07;4.20;;;;;;;7.73;93.71;101559.34;5110693;27;20206;-76
2022/10/11 06:39:55;;;;;;;17.00;7.70;;;;;;;7.87;94.45;101562.72;5089801;27;20954;-74
2022/10/11 06:42:54;;;;;;;9.00;4.10;;;;;;;7.75;94.28;101538.84;5099098;27;20434;-75
2022/10/11 06:45:44;;;;;;;8.73;4.43;;;;;;;7.85;94.65;101548.72;5090092;27;20403;-76
2022/10/11 06:48:42;;;;;;;20.63;9.57;;;;;;;7.97;93.59;101545.06;5149922;27;20399;-75
2022/10/11 06:51:34;;;;;;;14.40;8.80;;;;;;;8.23;93.54;101549.03;5090913;27;20390;-74
2022/10/11 06:54:10;;;;;;;9.73;5.53;;;;;;;8.20;92.63;101530.72;4269516;27;24019014;-77
2022/10/11 06:57:06;;;;;;;6.03;3.40;;;;;;;7.97;92.75;101537.94;5193088;27;20895;-75
2022/10/11 07:00:08;;;;;;;7.70;5.47;;;;;;;7.86;93.49;101531.84;5130126;27;20135;-74
2022/10/11 07:02:47;;;;;;;13.63;6.33;;;;;;;8.04;93.67;101532.97;4636047;27;15063454;-77
2022/10/11 07:06:01;;;;;;;7.30;5.00;;;;;;;8.15;92.78;101530.28;5132124;27;20383;-80
2022/10/11 07:08:59;;;;;;;6.80;5.10;;;;;;;7.91;93.51;101532.31;5193068;27;20390;-77
2022/10/11 07:11:51;;;;;;;11.63;6.30;;;;;;;7.86;93.96;101530.03;5090585;27;20711;-76
2022/10/11 07:14:30;;;;;;;7.65;4.70;;;;;;;7.86;94.19;101521.25;4536435;27;17872979;-82
2022/10/11 07:17:06;;;;;;;9.73;4.60;;;;;;;7.68;93.43;101492.59;4500294;27;18847731;-82
2022/10/11 07:20:00;;;;;;;13.13;4.73;;;;;;;7.68;94.00;101508.50;5129216;27;20509;-82
2022/10/11 07:22:36;;;;;;;6.13;4.30;;;;;;;7.73;93.76;101519.59;4474630;27;18595875;-78
2022/10/11 07:25:13;;;;;;;6.93;4.30;;;;;;;7.74;93.87;101520.41;4636645;27;15056513;-79
2022/10/11 07:27:51;;;;;;;7.40;4.60;;;;;;;7.54;94.20;101500.88;4610019;27;15749599;-78
2022/10/11 07:30:48;;;;;;;4.80;3.17;;;;;;;7.67;94.47;101513.94;5114275;27;20407;-80
2022/10/11 07:33:50;;;;;;;6.70;3.43;;;;;;;7.73;94.12;101513.44;5132098;27;20391;-80
2022/10/11 07:36:26;;;;;;;8.95;4.05;;;;;;;7.81;93.78;101510.19;4402006;27;20886750;-82
2022/10/11 07:43:57;;;;;;;10.57;4.27;;;;;;;7.94;93.33;101500.22;5169547;27;20536;-76
2022/10/11 07:46:50;;;;;;;5.67;4.00;;;;;;;8.00;92.91;101487.28;5121403;27;20395;-77
2022/10/11 07:49:44;;;;;;;9.67;4.90;;;;;;;8.04;93.63;101480.75;5192919;27;20448;-75
2022/10/11 07:52:35;;;;;;;7.57;4.33;;;;;;;8.20;93.17;101493.59;5128114;27;20720;-74
2022/10/11 07:55:34;;;;;;;7.90;4.70;;;;;;;8.26;92.60;101478.94;5099250;27;20402;-76
2022/10/11 07:58:30;;;;;;;6.03;3.47;;;;;;;8.29;90.91;101468.91;5089127;27;20401;-75
2022/10/11 08:01:10;;;;;;;7.50;4.23;;;;;;;8.29;90.91;101462.75;4538450;27;15055304;-76
2022/10/11 08:08:22;;;;;;;10.07;5.47;;;;;;;8.21;90.24;101394.44;5134928;27;20049;-74
2022/10/11 08:11:37;;;;;;;6.90;3.87;;;;;;;8.55;90.16;101436.66;4503475;27;18640536;-76
2022/10/11 08:24:49;;;;;;;7.20;3.30;;;;;;;8.74;87.52;101431.44;5305518;22;19719313;-76
2022/10/11 08:27:53;;;;;;;9.30;4.63;;;;;;;8.73;87.79;101413.00;5197698;27;20425;-75
2022/10/11 08:31:04;;;;;;;12.13;4.27;;;;;;;8.85;87.22;101417.22;5135211;27;20415;-75
2022/10/11 08:34:14;;;;;;;4.43;3.03;;;;;;;8.88;86.59;101401.84;5194843;27;20394;-74
2022/10/11 08:37:12;;;;;;;7.60;3.77;;;;;;;8.93;86.34;101418.22;5093540;27;20475;-74
2022/10/11 08:40:04;;;;;;;6.87;3.33;;;;;;;8.94;85.78;101403.94;5124243;27;20390;-77
2022/10/11 08:43:14;;;;;;;5.77;3.20;;;;;;;9.08;85.41;101401.91;5198430;27;20402;-75
2022/10/11 08:45:53;;;;;;;13.10;4.67;;;;;;;9.18;85.02;101389.44;5174194;27;20051;-73
2022/10/11 08:48:37;;;;;;;9.83;5.70;;;;;;;9.19;84.60;101377.84;5177163;27;20014;-74
2022/10/11 08:51:50;;;;;;;4.93;2.80;;;;;;;9.19;82.83;101372.53;5144055;27;20094;-76
2022/10/11 08:59:33;;;;;;;9.90;2.67;;;;;;;8.93;82.85;101314.59;5033145;28;20030;-74
2022/10/11 09:31:01;;;;;;;6.77;3.27;;;;;;;9.53;80.43;101333.06;5050862;28;20104;-79
2022/10/11 09:33:51;;;;;;;6.50;3.10;;;;;;;9.28;80.59;101281.34;5052462;28;20037;-79
2022/10/11 09:36:53;;;;;;;3.47;2.60;;;;;;;9.55;80.40;101321.34;5053043;28;20048;-79
2022/10/11 09:43:23;;;;;;;7.37;2.50;;;;;;;9.46;78.63;101284.94;4974450;28;20047;-78
2022/10/11 09:45:48;;;;;;;4.90;3.10;;;;;;;9.59;78.33;101297.94;4995423;28;20135;-79
2022/10/11 09:48:40;;;;;;;6.23;3.20;;;;;;;9.74;78.75;101301.81;5049960;28;20325;-78
2022/10/11 09:55:29;;;;;;;6.67;2.57;;;;;;;9.91;77.91;101285.13;5023632;28;20045;-80
2022/10/11 10:01:43;;;;;;;8.68;3.10;;;;;;;9.49;77.36;101228.81;5037641;28;20168;-80
2022/10/11 10:04:15;;;;;;;3.77;2.47;;;;;;;9.76;77.89;101275.06;5018007;28;20033;-80
2022/10/11 10:06:41;;;;;;;4.00;2.30;;;;;;;9.73;77.61;101264.72;5017413;28;20060;-79
2022/10/11 10:09:29;;;;;;;4.90;2.53;;;;;;;9.81;77.42;101272.81;5035916;28;20441;-78
2022/10/11 10:11:55;;;;;;;5.33;2.77;;;;;;;9.84;77.42;101272.53;5039883;28;20057;-78
2022/10/11 10:14:31;;;;;;;9.60;2.60;;;;;;;9.84;76.99;101264.56;5035193;28;20088;-79
2022/10/11 10:17:03;;;;;;;3.27;2.57;;;;;;;9.88;76.23;101263.28;5034755;28;20465;-78
2022/10/11 10:32:05;;;;;;;3.60;2.53;;;;;;;10.14;74.38;101229.69;5942582;22;20060;-77
2022/10/11 10:35:15;;;;;;;5.60;2.47;;;;;;;10.05;74.72;101195.13;5009637;28;20045;-79
2022/10/11 10:37:52;;;;;;;8.30;2.70;;;;;;;10.17;74.16;101221.41;5016555;28;20031;-79
2022/10/11 10:40:48;;;;;;;5.57;2.90;;;;;;;10.20;73.41;101215.81;5033860;28;20384;-79
2022/10/11 10:43:17;;;;;;;6.60;2.97;;;;;;;10.24;73.15;101217.19;4991224;28;20048;-78
2022/10/11 10:46:11;;;;;;;9.27;2.97;;;;;;;10.36;73.36;101206.31;5034121;28;20045;-78
2022/10/11 10:49:05;;;;;;;6.70;3.50;;;;;;;10.44;72.66;101209.09;5034282;28;20087;-82
2022/10/11 10:52:02;;;;;;;6.20;2.33;;;;;;;10.49;71.90;101209.47;5034165;28;20034;-78
2022/10/11 10:54:42;;;;;;;6.47;2.50;;;;;;;10.53;70.91;101206.34;5034005;28;20132;-77
2022/10/11 10:57:26;;;;;;;5.87;2.73;;;;;;;10.60;70.18;101192.41;5034638;28;20099;-78
2022/10/11 11:00:10;;;;;;;3.23;2.30;;;;;;;10.63;70.43;101192.94;5034383;28;20087;-78
2022/10/11 11:02:48;;;;;;;5.53;3.40;;;;;;;10.64;70.20;101180.47;5034344;28;20091;-78
2022/10/11 11:05:39;;;;;;;3.17;2.20;;;;;;;10.67;70.80;101181.00;5033159;28;20044;-78
2022/10/11 11:08:07;;;;;;;10.00;2.70;;;;;;;10.72;70.59;101168.09;5034589;28;20037;-78
2022/10/11 11:10:40;;;;;;;4.10;2.83;;;;;;;10.81;70.22;101166.31;5035275;28;20021;-78
2022/10/11 11:13:33;;;;;;;8.77;3.00;;;;;;;10.90;69.83;101161.88;5036031;28;20357;-78
2022/10/11 11:16:34;;;;;;;3.43;2.10;;;;;;;10.94;69.27;101141.91;5018120;28;20146;-78
2022/10/11 11:19:20;;;;;;;3.43;2.40;;;;;;;10.99;68.28;101143.16;5034488;28;20048;-78
2022/10/11 11:22:01;;;;;;;9.63;2.60;;;;;;;10.94;69.09;101136.59;5034766;28;20069;-77
2022/10/11 11:24:32;;;;;;;7.43;2.67;;;;;;;10.79;68.95;101121.19;5036907;28;20041;-80
2022/10/11 11:27:11;;;;;;;10.43;2.90;;;;;;;10.61;69.05;101123.03;5036721;28;20048;-79
2022/10/11 11:30:02;;;;;;;3.53;2.50;;;;;;;10.52;69.84;101123.94;5035142;28;20071;-80
2022/10/11 11:32:56;;;;;;;3.37;2.40;;;;;;;10.48;70.47;101133.25;5036238;28;20136;-78
2022/10/11 11:35:37;;;;;;;6.77;3.20;;;;;;;10.37;70.31;101130.78;5039103;28;20041;-76
2022/10/11 11:38:13;;;;;;;4.47;2.60;;;;;;;10.40;69.88;101125.16;5044015;28;20041;-76
2022/10/11 11:40:44;;;;;;;5.70;2.33;;;;;;;10.40;69.57;101128.66;5038372;28;20052;-78
2022/10/11 11:43:27;;;;;;;3.20;2.40;;;;;;;10.41;69.18;101126.84;5035181;28;20018;-76
2022/10/11 11:45:58;;;;;;;2.40;2.03;;;;;;;10.48;68.29;101119.91;5018319;28;20047;-78
2022/10/11 11:48:25;;;;;;;2.80;2.53;;;;;;;10.61;68.03;101128.34;5034032;28;20033;-78
2022/10/11 11:54:51;;;;;;;7.77;2.13;;;;;;;10.68;65.77;101097.44;5057109;28;20047;-76
2022/10/11 11:57:39;;;;;;;3.80;2.60;;;;;;;11.05;64.16;101125.69;5057111;28;20049;-77
2022/10/11 12:00:04;;;;;;;3.17;2.40;;;;;;;11.14;64.45;101119.41;5051640;28;20089;-77
2022/10/11 12:02:57;;;;;;;4.07;2.53;;;;;;;11.21;64.61;101109.78;5038625;28;20283;-78
2022/10/11 12:05:32;;;;;;;7.20;3.27;;;;;;;11.36;62.66;101118.88;5028880;28;20064;-78
2022/10/11 12:08:16;;;;;;;6.20;2.60;;;;;;;11.41;62.91;101108.56;5046368;28;20056;-75
2022/10/11 12:10:54;;;;;;;2.87;2.00;;;;;;;11.44;61.13;101120.72;5032904;28;20040;-78
2022/10/11 12:13:34;;;;;;;6.60;2.10;;;;;;;11.47;61.61;101121.25;5032718;28;20373;-76
2022/10/11 12:16:05;;;;;;;2.80;2.20;;;;;;;11.47;61.05;101115.91;5032552;28;20124;-77
2022/10/11 12:19:08;;;;;;;5.37;2.53;;;;;;;11.45;60.68;101123.25;5033928;28;20029;-77
2022/10/11 12:32:51;;;;;;;9.20;3.70;;;;;;;11.43;60.65;101109.22;5382957;22;20048;-79
2022/10/11 12:35:52;;;;;;;4.63;2.10;;;;;;;11.47;60.82;101105.25;5034352;28;20128;-78
2022/10/11 12:38:21;;;;;;;3.43;1.80;;;;;;;11.48;59.87;101096.25;5019507;28;20041;-80
2022/10/11 12:40:53;;;;;;;9.10;2.00;;;;;;;11.42;59.63;101088.91;5032432;28;20051;-79
2022/10/11 12:43:18;;;;;;;4.67;2.17;;;;;;;11.48;60.13;101100.75;5014463;28;20516;-78
2022/10/11 12:45:46;;;;;;;2.90;1.73;;;;;;;11.48;60.01;101098.91;5033869;28;20029;-79
2022/10/11 12:48:24;;;;;;;7.97;2.17;;;;;;;11.49;59.29;101092.59;5036473;28;20052;-79
2022/10/11 12:50:57;;;;;;;5.63;2.33;;;;;;;11.48;60.44;101087.41;5033942;28;20472;-80
2022/10/11 13:04:28;;;;;;;8.00;1.90;;;;;;;11.38;60.46;101049.38;5031781;28;20188;-76
2022/10/11 13:06:57;;;;;;;8.83;2.17;;;;;;;11.48;61.14;101069.56;5035162;28;20109;-79
2022/10/11 13:09:32;;;;;;;6.07;3.30;;;;;;;11.52;61.52;101074.59;5033059;28;20033;-77
2022/10/11 13:12:03;;;;;;;3.67;2.03;;;;;;;11.52;61.24;101070.09;5032481;28;20033;-77
2022/10/11 13:14:41;;;;;;;5.03;1.83;;;;;;;11.48;61.15;101069.56;5014645;28;20132;-78
2022/10/11 13:17:15;;;;;;;4.97;1.80;;;;;;;11.51;61.57;101073.75;5032181;28;20029;-76
2022/10/11 13:23:28;;;;;;;2.50;1.67;;;;;;;11.36;62.30;101057.53;5014068;28;20021;-77
2022/10/11 13:29:45;;;;;;;4.43;2.10;;;;;;;11.57;63.21;101082.97;5033952;28;20095;-77
2022/10/11 13:32:29;;;;;;;6.33;2.33;;;;;;;11.40;63.52;101058.88;4993167;28;20291;-76
2022/10/11 13:36:10;;;;;;;5.40;3.07;;;;;;;11.57;64.18;101088.31;5001038;28;20056;-77
2022/10/11 13:42:50;;;;;;;8.40;2.83;;;;;;;11.29;67.89;101064.50;5013597;28;20184;-77
2022/10/11 13:45:57;;;;;;;4.43;2.20;;;;;;;11.11;70.35;101066.41;4996164;28;20045;-78
2022/10/11 13:48:23;;;;;;;3.37;2.47;;;;;;;10.86;73.34;101052.94;5014921;28;20030;-77
2022/10/11 13:51:04;;;;;;;5.70;2.73;;;;;;;11.01;73.35;101097.69;5015193;28;20038;-78
2022/10/11 13:53:30;;;;;;;6.67;2.90;;;;;;;10.84;75.31;101097.56;5015447;28;20030;-78
2022/10/11 13:55:58;;;;;;;4.80;2.90;;;;;;;10.80;77.33;101109.53;5014374;28;20061;-78
2022/10/11 13:58:35;;;;;;;6.22;3.33;;;;;;;10.70;77.74;101119.44;5015321;28;20029;-77
2022/10/11 14:01:05;;;;;;;6.50;3.07;;;;;;;10.63;79.88;101118.38;5014880;28;20049;-77
2022/10/11 14:03:45;;;;;;;3.80;2.50;;;;;;;10.60;79.30;101109.84;5014793;28;20032;-77
2022/10/11 14:06:10;;;;;;;6.53;3.13;;;;;;;10.55;77.70;101116.47;5015606;28;20041;-76
2022/10/11 14:08:54;;;;;;;7.40;2.97;;;;;;;10.64;77.37;101117.38;4992147;28;20038;-78
2022/10/11 14:11:38;;;;;;;4.83;2.30;;;;;;;10.66;77.56;101118.06;5015413;28;20033;-77
2022/10/11 14:14:31;;;;;;;5.73;2.60;;;;;;;10.70;77.76;101116.78;5015082;28;20052;-76
2022/10/11 14:17:04;;;;;;;3.83;2.50;;;;;;;10.72;77.70;101109.47;5015506;28;20045;-77
2022/10/11 14:19:35;;;;;;;4.25;2.17;;;;;;;10.65;77.76;101108.41;4997562;28;20030;-76
2022/10/11 14:22:03;;;;;;;5.33;2.30;;;;;;;10.69;76.82;101108.91;5015256;28;20034;-78
2022/10/11 14:24:30;;;;;;;6.43;2.50;;;;;;;10.68;77.13;101118.75;5015941;28;20029;-76
2022/10/11 14:26:56;;;;;;;3.63;2.20;;;;;;;10.71;77.97;101114.97;5022747;28;20040;-76
2022/10/11 14:29:33;;;;;;;6.20;2.30;;;;;;;10.70;78.61;101127.44;5027410;28;20034;-76
2022/10/11 14:32:09;;;;;;;7.90;2.63;;;;;;;10.67;79.59;101127.72;5030489;28;20095;-76
2022/10/11 14:34:36;;;;;;;7.53;2.57;;;;;;;10.46;80.57;101108.59;5047741;28;20033;-76
2022/10/11 14:37:02;;;;;;;7.77;2.20;;;;;;;10.40;80.80;101114.50;5044834;28;20037;-76
2022/10/11 14:39:31;;;;;;;4.23;1.93;;;;;;;10.37;81.92;101128.13;5027138;28;20042;-76